Time;durP1;ratioP1;P1;durP2;ratioP2;P2;SDS_P1;SDS_P2;PMS_P1;PMS_P2;Temp;Humidity;BMP_temperature;BMP_pressure;BME280_temperature;BME280_humidity;BME280_pressure;Samples;Min_cycle;Max_cycle;Signal;HPM_P1;HPM_P2
2022/01/19 00:01:09;;;;;;;;;;;-3.10;99.90;;;;;;4934884;29;19913;-77
2022/01/19 00:03:35;;;;;;;;;;;-3.10;99.90;;;;;;4951046;29;19911;-77
2022/01/19 00:06:01;;;;;;;;;;;-3.10;99.90;;;;;;4934877;29;20368;-78
2022/01/19 00:08:28;;;;;;;;;;;-3.10;99.90;;;;;;4952028;29;19910;-77
2022/01/19 00:10:55;;;;;;;;;;;-3.10;99.90;;;;;;4951533;29;19973;-77
2022/01/19 00:13:20;;;;;;;;;;;-3.20;99.90;;;;;;4934476;29;19910;-77
2022/01/19 00:15:46;;;;;;;;;;;-3.20;99.90;;;;;;4951680;28;20411;-77
2022/01/19 00:18:12;;;;;;;;;;;-3.30;99.90;;;;;;4934456;29;20367;-78
2022/01/19 00:20:38;;;;;;;;;;;-3.30;99.90;;;;;;4951092;29;19910;-77
2022/01/19 00:23:04;;;;;;;;;;;-3.40;99.90;;;;;;4934224;29;19945;-77
2022/01/19 00:25:30;;;;;;;;;;;-3.40;99.90;;;;;;4935054;29;19910;-77
2022/01/19 00:27:56;;;;;;;;;;;-3.40;99.90;;;;;;4934619;29;19910;-77
2022/01/19 00:30:22;;;;;;;;;;;-3.30;99.90;;;;;;4950786;29;20335;-77
2022/01/19 00:32:47;;;;;;;;;;;-3.20;99.90;;;;;;4934215;29;19970;-77
2022/01/19 00:35:13;;;;;;;;;;;-3.20;99.90;;;;;;4933691;29;20397;-77
2022/01/19 00:37:39;;;;;;;;;;;-3.20;99.90;;;;;;4933980;29;19957;-76
2022/01/19 00:40:06;;;;;;;;;;;-3.30;99.90;;;;;;4934599;29;19911;-77
2022/01/19 00:42:32;;;;;;;;;;;-3.30;99.90;;;;;;4951588;29;19942;-77
2022/01/19 00:44:58;;;;;;;;;;;-3.30;99.90;;;;;;4951573;29;19964;-77
2022/01/19 00:47:23;;;;;;;;;;;-3.30;99.90;;;;;;4934141;29;19918;-77
2022/01/19 00:49:49;;;;;;;;;;;-3.40;99.90;;;;;;4950928;29;19997;-76
2022/01/19 00:52:14;;;;;;;;;;;-3.40;99.90;;;;;;4933686;29;20390;-77
2022/01/19 00:54:41;;;;;;;;;;;-3.40;99.90;;;;;;4951199;29;19914;-77
2022/01/19 00:57:07;;;;;;;;;;;-3.30;99.90;;;;;;4934225;29;20441;-77
2022/01/19 00:59:33;;;;;;;;;;;-3.30;99.90;;;;;;4934073;29;19911;-77
2022/01/19 01:01:58;;;;;;;;;;;-3.20;99.90;;;;;;4934110;29;19911;-77
2022/01/19 01:04:24;;;;;;;;;;;-3.20;99.90;;;;;;4933378;29;19910;-77
2022/01/19 01:06:50;;;;;;;;;;;-3.20;99.90;;;;;;4934066;29;19910;-77
2022/01/19 01:09:15;;;;;;;;;;;-3.20;99.90;;;;;;4934304;29;19910;-77
2022/01/19 01:11:57;;;;;;;;;;;-3.20;99.90;;;;;;4934240;29;19906;-77
2022/01/19 01:18:16;;;;;;;;;;;-3.20;99.90;;;;;;4952128;28;20385;-77
2022/01/19 01:19:54;;;;;;;;;;;-3.20;99.90;;;;;;4950416;29;19969;-77
2022/01/19 01:22:20;;;;;;;;;;;-3.20;99.90;;;;;;4935237;29;19910;-78
2022/01/19 01:24:45;;;;;;;;;;;-3.20;99.90;;;;;;4943164;29;20009;-77
2022/01/19 01:27:11;;;;;;;;;;;-3.30;99.90;;;;;;4933670;29;19913;-77
2022/01/19 01:29:36;;;;;;;;;;;-3.30;99.90;;;;;;4951059;28;19934;-77
2022/01/19 01:32:02;;;;;;;;;;;-3.40;99.90;;;;;;4933548;29;19917;-77
2022/01/19 01:34:27;;;;;;;;;;;-3.40;99.90;;;;;;4933464;29;19917;-77
2022/01/19 01:36:53;;;;;;;;;;;-3.40;99.90;;;;;;4950932;29;19914;-77
2022/01/19 01:39:18;;;;;;;;;;;-3.40;99.90;;;;;;4950746;29;20299;-77
2022/01/19 01:41:44;;;;;;;;;;;-3.50;99.90;;;;;;4933721;29;20360;-78
2022/01/19 01:44:09;;;;;;;;;;;-3.50;99.90;;;;;;4933744;29;19910;-77
2022/01/19 01:46:45;;;;;;;;;;;-3.60;99.90;;;;;;4933169;29;19915;-78
2022/01/19 01:49:17;;;;;;;;;;;-3.60;99.90;;;;;;4932883;29;19911;-77
2022/01/19 01:54:27;;;;;;;;;;;-3.50;99.90;;;;;;4950853;29;19917;-77
2022/01/19 01:56:53;;;;;;;;;;;-3.50;99.90;;;;;;4950481;29;20377;-76
2022/01/19 01:59:19;;;;;;;;;;;-3.60;99.90;;;;;;4932801;29;20379;-77
2022/01/19 02:01:44;;;;;;;;;;;-3.60;99.90;;;;;;4950523;29;19918;-78
2022/01/19 02:04:10;;;;;;;;;;;-3.60;99.90;;;;;;4949391;29;19993;-77
2022/01/19 02:06:58;;;;;;;;;;;-3.60;99.90;;;;;;4949853;29;19914;-77
2022/01/19 02:09:26;;;;;;;;;;;-3.70;99.90;;;;;;4933045;29;19914;-77
2022/01/19 02:23:04;;;;;;;;;;;-4.00;99.90;;;;;;4950455;29;20331;-77
2022/01/19 02:25:36;;;;;;;;;;;-4.00;99.90;;;;;;4949606;29;20379;-77
2022/01/19 02:41:36;;;;;;;;;;;-3.90;99.90;;;;;;4950253;29;19938;-77
2022/01/19 02:44:02;;;;;;;;;;;-3.80;99.90;;;;;;4932811;29;19918;-76
2022/01/19 02:46:40;;;;;;;;;;;-3.80;99.90;;;;;;4932172;29;19910;-77
2022/01/19 02:49:19;;;;;;;;;;;-3.80;99.90;;;;;;4932251;28;19914;-76
2022/01/19 02:51:46;;;;;;;;;;;-3.90;99.90;;;;;;4932864;29;19922;-77
2022/01/19 02:54:15;;;;;;;;;;;-3.90;99.90;;;;;;4937712;29;20292;-78
2022/01/19 02:56:45;;;;;;;;;;;-4.00;99.90;;;;;;4935837;29;19917;-76
2022/01/19 02:59:40;;;;;;;;;;;-4.10;99.90;;;;;;4949686;29;19906;-77
2022/01/19 03:10:19;;;;;;;;;;;-4.20;99.90;;;;;;4949364;28;19926;-77
2022/01/19 03:12:44;;;;;;;;;;;-4.20;99.90;;;;;;4949464;29;19918;-77
2022/01/19 03:15:11;;;;;;;;;;;-4.20;99.90;;;;;;4934880;29;19906;-78
2022/01/19 03:17:37;;;;;;;;;;;-4.20;99.90;;;;;;4935358;29;19950;-77
2022/01/19 03:20:03;;;;;;;;;;;-4.20;99.90;;;;;;4935925;29;19964;-77
2022/01/19 03:22:36;;;;;;;;;;;-4.20;99.90;;;;;;4952585;28;19953;-77
2022/01/19 03:25:02;;;;;;;;;;;-4.10;99.90;;;;;;4936073;29;19910;-77
2022/01/19 03:27:28;;;;;;;;;;;-4.20;99.90;;;;;;4935458;29;19921;-77
2022/01/19 03:29:54;;;;;;;;;;;-4.20;99.90;;;;;;4952571;28;19922;-77
2022/01/19 03:32:19;;;;;;;;;;;-4.20;99.90;;;;;;4937329;29;20431;-77
2022/01/19 03:34:45;;;;;;;;;;;-4.30;99.90;;;;;;4935029;29;19910;-77
2022/01/19 03:37:11;;;;;;;;;;;-4.40;99.90;;;;;;4952851;29;19907;-77
2022/01/19 03:39:37;;;;;;;;;;;-4.50;99.90;;;;;;4952946;29;20446;-78
2022/01/19 03:42:03;;;;;;;;;;;-4.40;99.90;;;;;;4935464;29;19970;-77
2022/01/19 03:44:28;;;;;;;;;;;-4.40;99.90;;;;;;4952828;29;19906;-77
2022/01/19 03:46:57;;;;;;;;;;;-4.40;99.90;;;;;;4934494;29;19913;-77
2022/01/19 03:49:24;;;;;;;;;;;-4.40;99.90;;;;;;4935256;29;20001;-77
2022/01/19 03:51:58;;;;;;;;;;;-4.40;99.90;;;;;;4935299;28;19950;-76
2022/01/19 03:54:24;;;;;;;;;;;-4.40;99.90;;;;;;4935337;29;19906;-77
2022/01/19 03:56:50;;;;;;;;;;;-4.40;99.90;;;;;;4952698;29;19941;-78
2022/01/19 03:59:15;;;;;;;;;;;-4.40;99.90;;;;;;4935742;29;20312;-78
2022/01/19 04:01:41;;;;;;;;;;;-4.40;99.90;;;;;;4934782;29;19913;-77
2022/01/19 04:09:20;;;;;;;;;;;-4.40;99.90;;;;;;4952796;29;20005;-77
2022/01/19 04:11:46;;;;;;;;;;;-4.40;99.90;;;;;;4935168;29;20441;-77
2022/01/19 04:14:26;;;;;;;;;;;-4.40;99.90;;;;;;4935485;29;19907;-78
2022/01/19 04:16:52;;;;;;;;;;;-4.40;99.90;;;;;;4935554;29;19997;-77
2022/01/19 04:21:56;;;;;;;;;;;-4.40;99.90;;;;;;4953174;29;20401;-78
2022/01/19 04:24:23;;;;;;;;;;;-4.40;99.90;;;;;;4954801;28;19914;-78
2022/01/19 04:29:44;;;;;;;;;;;-4.50;99.90;;;;;;4921613;28;19929;-78
2022/01/19 04:32:18;;;;;;;;;;;-4.60;99.90;;;;;;4915024;29;20662;-77
2022/01/19 04:34:46;;;;;;;;;;;-4.60;99.90;;;;;;4912299;29;19960;-76
2022/01/19 05:04:07;;;;;;;;;;;-5.00;99.90;;;;;;4949184;28;19961;-77
2022/01/19 05:06:37;;;;;;;;;;;-5.10;99.90;;;;;;4945855;29;20491;-77
2022/01/19 05:09:11;;;;;;;;;;;-5.00;99.90;;;;;;4929813;29;19965;-76
2022/01/19 05:14:20;;;;;;;;;;;-5.20;99.90;;;;;;4947131;29;19956;-77
2022/01/19 05:16:46;;;;;;;;;;;-5.10;99.90;;;;;;4946820;29;19974;-77
2022/01/19 05:19:12;;;;;;;;;;;-5.10;99.90;;;;;;4946930;29;19992;-77
2022/01/19 05:21:37;;;;;;;;;;;-5.10;99.90;;;;;;4929817;29;20509;-77
2022/01/19 05:24:04;;;;;;;;;;;-5.00;99.90;;;;;;4930466;29;20033;-77
2022/01/19 05:26:30;;;;;;;;;;;-5.10;99.90;;;;;;4947886;29;19910;-77
2022/01/19 05:28:56;;;;;;;;;;;-5.00;99.90;;;;;;4930628;29;19910;-78
2022/01/19 05:31:22;;;;;;;;;;;-5.00;99.90;;;;;;4947574;28;19924;-78
2022/01/19 05:33:47;;;;;;;;;;;-4.90;99.90;;;;;;4947733;28;20045;-77
2022/01/19 05:36:13;;;;;;;;;;;-5.00;99.90;;;;;;4948295;28;20090;-77
2022/01/19 05:38:38;;;;;;;;;;;-4.90;99.90;;;;;;4946443;28;20050;-77
2022/01/19 05:41:04;;;;;;;;;;;-4.90;99.90;;;;;;4947378;29;19910;-76
2022/01/19 05:43:29;;;;;;;;;;;-4.90;99.90;;;;;;4929239;29;19918;-77
2022/01/19 05:45:55;;;;;;;;;;;-4.90;99.90;;;;;;4929125;29;19906;-78
2022/01/19 05:48:21;;;;;;;;;;;-4.90;99.90;;;;;;4930301;29;20375;-77
2022/01/19 05:50:46;;;;;;;;;;;-4.90;99.90;;;;;;4930328;29;19914;-78
2022/01/19 05:53:13;;;;;;;;;;;-5.00;99.90;;;;;;4931265;29;20335;-78
2022/01/19 05:55:38;;;;;;;;;;;-5.00;99.90;;;;;;4932363;29;19906;-78
2022/01/19 05:58:04;;;;;;;;;;;-4.90;99.90;;;;;;4953543;29;19969;-78
2022/01/19 06:00:30;;;;;;;;;;;-4.80;99.90;;;;;;4929817;29;20361;-77
2022/01/19 06:02:55;;;;;;;;;;;-4.80;99.90;;;;;;4930085;29;19906;-77
2022/01/19 06:05:21;;;;;;;;;;;-4.80;99.90;;;;;;4948422;28;20374;-78
2022/01/19 06:07:48;;;;;;;;;;;-4.90;99.90;;;;;;4946828;29;19907;-77
2022/01/19 06:12:59;;;;;;;;;;;-5.00;99.90;;;;;;4947478;29;19917;-77
2022/01/19 06:15:24;;;;;;;;;;;-5.00;99.90;;;;;;4947074;28;19916;-78
2022/01/19 06:17:51;;;;;;;;;;;-5.00;99.90;;;;;;4946746;28;20610;-77
2022/01/19 06:20:16;;;;;;;;;;;-5.00;99.90;;;;;;4930153;29;19929;-77
2022/01/19 06:22:42;;;;;;;;;;;-5.10;99.90;;;;;;4946988;28;19985;-77
2022/01/19 06:25:08;;;;;;;;;;;-5.00;99.90;;;;;;4929182;29;19910;-77
2022/01/19 06:27:33;;;;;;;;;;;-5.00;99.90;;;;;;4948587;28;19934;-78
2022/01/19 06:29:59;;;;;;;;;;;-5.10;99.90;;;;;;4932522;28;19922;-77
2022/01/19 06:32:24;;;;;;;;;;;-5.10;99.90;;;;;;4932458;29;19961;-78
2022/01/19 06:34:50;;;;;;;;;;;-5.20;99.90;;;;;;4950428;29;20375;-78
2022/01/19 06:37:15;;;;;;;;;;;-5.10;99.90;;;;;;4932281;29;20604;-77
2022/01/19 06:39:41;;;;;;;;;;;-5.10;99.90;;;;;;4950114;29;19938;-77
2022/01/19 06:42:07;;;;;;;;;;;-5.10;99.90;;;;;;4949988;29;19917;-77
2022/01/19 06:44:33;;;;;;;;;;;-5.10;99.90;;;;;;4949378;29;19914;-77
2022/01/19 06:46:58;;;;;;;;;;;-5.10;99.90;;;;;;4932713;29;19965;-77
2022/01/19 06:49:24;;;;;;;;;;;-5.00;99.90;;;;;;4934041;29;19907;-77
2022/01/19 06:51:50;;;;;;;;;;;-5.00;99.90;;;;;;4936863;29;19910;-77
2022/01/19 06:54:15;;;;;;;;;;;-5.00;99.90;;;;;;4954161;29;20260;-78
2022/01/19 06:56:41;;;;;;;;;;;-4.90;99.90;;;;;;4953521;29;19929;-77
2022/01/19 06:59:06;;;;;;;;;;;-4.90;99.90;;;;;;4953507;28;19910;-77
2022/01/19 07:01:33;;;;;;;;;;;-4.90;99.90;;;;;;4953544;28;19914;-78
2022/01/19 07:03:59;;;;;;;;;;;-4.90;99.90;;;;;;4954071;29;19910;-78
2022/01/19 07:06:25;;;;;;;;;;;-4.80;99.90;;;;;;4935483;29;19910;-78
2022/01/19 07:08:50;;;;;;;;;;;-4.80;99.90;;;;;;4936246;29;19910;-79
2022/01/19 07:11:16;;;;;;;;;;;-4.50;99.90;;;;;;4953972;29;20434;-77
2022/01/19 07:13:41;;;;;;;;;;;-4.10;99.90;;;;;;4937418;29;19911;-77
2022/01/19 07:16:07;;;;;;;;;;;-3.60;99.90;;;;;;4937687;29;19910;-77
2022/01/19 07:18:33;;;;;;;;;;;-3.10;99.90;;;;;;4938387;29;19913;-78
2022/01/19 07:20:59;;;;;;;;;;;-2.60;99.90;;;;;;4939446;29;20004;-79
2022/01/19 07:23:24;;;;;;;;;;;-2.30;99.90;;;;;;4939868;29;19964;-78
2022/01/19 07:25:50;;;;;;;;;;;-2.00;99.90;;;;;;4942173;29;19917;-78
2022/01/19 07:28:15;;;;;;;;;;;-1.60;99.90;;;;;;4946516;29;19914;-78
2022/01/19 07:30:41;;;;;;;;;;;-1.20;99.90;;;;;;4957087;28;20310;-79
2022/01/19 07:33:07;;;;;;;;;;;-0.70;99.90;;;;;;4941629;29;20234;-78
2022/01/19 07:35:32;;;;;;;;;;;-0.20;99.90;;;;;;4941386;29;19917;-78
2022/01/19 07:37:58;;;;;;;;;;;0.00;99.90;;;;;;4958786;29;20347;-79
2022/01/19 07:40:24;;;;;;;;;;;0.20;99.90;;;;;;4942866;29;20379;-79
2022/01/19 07:42:52;;;;;;;;;;;0.50;99.90;;;;;;4939874;29;19921;-78
2022/01/19 07:45:18;;;;;;;;;;;0.60;99.90;;;;;;4941855;28;19907;-79
2022/01/19 07:47:44;;;;;;;;;;;0.70;99.90;;;;;;4940095;29;20004;-75
2022/01/19 07:50:09;;;;;;;;;;;0.70;99.90;;;;;;4954053;29;19972;-77
2022/01/19 07:52:35;;;;;;;;;;;0.70;99.90;;;;;;4936393;29;19906;-80
2022/01/19 07:55:00;;;;;;;;;;;0.80;99.90;;;;;;4937692;29;20276;-77
2022/01/19 07:57:26;;;;;;;;;;;1.00;99.90;;;;;;4937296;29;19911;-77
2022/01/19 07:59:51;;;;;;;;;;;1.20;99.90;;;;;;4952886;28;19964;-77
2022/01/19 08:02:17;;;;;;;;;;;1.50;99.90;;;;;;4951946;29;20625;-77
2022/01/19 08:04:43;;;;;;;;;;;1.80;99.90;;;;;;4936817;29;19937;-76
2022/01/19 08:07:08;;;;;;;;;;;2.10;99.90;;;;;;4936362;29;19914;-79
2022/01/19 08:09:35;;;;;;;;;;;2.40;99.90;;;;;;4939443;29;19906;-79
2022/01/19 08:12:01;;;;;;;;;;;2.80;99.90;;;;;;4938129;29;19914;-79
2022/01/19 08:14:26;;;;;;;;;;;3.20;98.00;;;;;;4938988;29;19930;-79
2022/01/19 08:16:53;;;;;;;;;;;3.60;95.40;;;;;;4937235;29;19928;-77
2022/01/19 08:19:18;;;;;;;;;;;3.90;96.40;;;;;;4936792;29;20008;-77
2022/01/19 08:24:28;;;;;;;;;;;4.40;89.80;;;;;;4955019;28;19914;-78
2022/01/19 08:26:55;;;;;;;;;;;4.70;87.90;;;;;;4954488;29;19918;-78
2022/01/19 08:29:21;;;;;;;;;;;4.90;76.40;;;;;;4936192;29;20401;-77
2022/01/19 08:31:47;;;;;;;;;;;5.20;73.60;;;;;;4954457;29;20379;-77
2022/01/19 08:34:12;;;;;;;;;;;5.60;69.20;;;;;;4936831;29;20327;-78
2022/01/19 08:36:38;;;;;;;;;;;5.90;68.50;;;;;;4935745;29;19906;-77
2022/01/19 08:39:04;;;;;;;;;;;6.10;62.20;;;;;;4953528;29;19973;-77
2022/01/19 08:41:29;;;;;;;;;;;6.30;61.80;;;;;;4935994;29;19907;-77
2022/01/19 08:43:55;;;;;;;;;;;6.50;57.60;;;;;;4952524;29;19917;-77
2022/01/19 08:46:21;;;;;;;;;;;6.70;59.50;;;;;;4933203;29;19906;-80
2022/01/19 08:48:46;;;;;;;;;;;7.00;57.70;;;;;;4932525;29;20419;-78
2022/01/19 08:51:12;;;;;;;;;;;7.40;57.00;;;;;;4950744;29;20812;-78
2022/01/19 08:53:38;;;;;;;;;;;7.70;55.30;;;;;;4932812;29;19911;-79
2022/01/19 08:56:03;;;;;;;;;;;7.90;54.40;;;;;;4932896;29;19913;-80
2022/01/19 08:58:29;;;;;;;;;;;8.30;53.00;;;;;;4950012;29;20315;-79
2022/01/19 09:00:54;;;;;;;;;;;8.50;51.30;;;;;;4933135;29;19973;-81
2022/01/19 09:03:20;;;;;;;;;;;8.50;50.40;;;;;;4950507;28;19913;-80
2022/01/19 09:05:45;;;;;;;;;;;8.40;50.00;;;;;;4933101;29;20343;-79
2022/01/19 09:08:11;;;;;;;;;;;8.20;49.00;;;;;;4932959;29;19910;-81
2022/01/19 09:10:40;;;;;;;;;;;7.70;50.50;;;;;;4950135;28;19977;-80
2022/01/19 09:13:05;;;;;;;;;;;7.30;52.10;;;;;;4949369;28;20435;-82
2022/01/19 09:15:31;;;;;;;;;;;6.90;52.70;;;;;;4933343;29;19949;-78
2022/01/19 09:17:56;;;;;;;;;;;6.70;52.70;;;;;;4932585;29;20001;-78
2022/01/19 09:20:22;;;;;;;;;;;6.20;54.30;;;;;;4953166;29;19914;-78
2022/01/19 09:22:49;;;;;;;;;;;6.00;55.90;;;;;;4934979;29;19913;-77
2022/01/19 09:25:14;;;;;;;;;;;5.90;55.30;;;;;;4953130;28;19957;-77
2022/01/19 09:27:40;;;;;;;;;;;5.80;55.20;;;;;;4936753;29;19937;-78
2022/01/19 09:30:07;;;;;;;;;;;5.50;57.20;;;;;;4954614;28;19919;-78
2022/01/19 09:32:33;;;;;;;;;;;5.40;58.60;;;;;;4954937;28;19911;-78
2022/01/19 09:35:06;;;;;;;;;;;5.20;59.60;;;;;;4937969;29;19925;-77
2022/01/19 09:37:32;;;;;;;;;;;5.10;60.50;;;;;;4955218;28;20410;-77
2022/01/19 09:39:57;;;;;;;;;;;5.00;61.20;;;;;;4936672;29;19910;-76
2022/01/19 09:42:23;;;;;;;;;;;4.80;60.70;;;;;;4937321;29;20009;-77
2022/01/19 09:44:48;;;;;;;;;;;4.70;62.60;;;;;;4934303;29;19969;-77
2022/01/19 09:47:14;;;;;;;;;;;4.60;62.90;;;;;;4951171;29;19972;-77
2022/01/19 09:49:39;;;;;;;;;;;4.40;64.40;;;;;;4950540;29;19953;-78
2022/01/19 09:52:05;;;;;;;;;;;4.00;65.70;;;;;;4934093;29;19920;-77
2022/01/19 09:54:31;;;;;;;;;;;4.00;69.00;;;;;;4951058;28;20367;-78
2022/01/19 09:56:56;;;;;;;;;;;4.00;72.60;;;;;;4933943;29;19914;-77
2022/01/19 09:59:22;;;;;;;;;;;3.80;70.50;;;;;;4933113;29;20363;-78
2022/01/19 10:01:52;;;;;;;;;;;3.60;71.70;;;;;;4952232;29;19961;-77
2022/01/19 10:04:24;;;;;;;;;;;3.50;75.80;;;;;;4935208;29;19910;-76
2022/01/19 10:07:08;;;;;;;;;;;3.50;77.90;;;;;;4951918;28;19965;-77
2022/01/19 10:09:33;;;;;;;;;;;3.40;77.60;;;;;;4935678;29;19910;-77
2022/01/19 10:17:14;;;;;;;;;;;3.40;80.40;;;;;;4957051;29;20037;-77
2022/01/19 10:19:45;;;;;;;;;;;3.30;85.10;;;;;;4940049;29;20371;-77
2022/01/19 10:22:11;;;;;;;;;;;3.40;86.80;;;;;;4940102;29;19914;-78
2022/01/19 10:24:39;;;;;;;;;;;3.40;86.20;;;;;;4945117;29;20013;-77
2022/01/19 10:27:19;;;;;;;;;;;3.40;83.20;;;;;;4948007;29;19960;-79
2022/01/19 10:29:46;;;;;;;;;;;3.30;83.70;;;;;;4948177;28;19926;-79
2022/01/19 10:32:12;;;;;;;;;;;3.20;86.30;;;;;;4939111;29;19910;-79
2022/01/19 10:34:38;;;;;;;;;;;3.10;88.80;;;;;;4938823;29;19921;-79
2022/01/19 10:37:05;;;;;;;;;;;3.20;91.60;;;;;;4939138;29;19910;-78
2022/01/19 10:39:48;;;;;;;;;;;3.30;90.90;;;;;;4938949;29;19910;-78
2022/01/19 10:42:17;;;;;;;;;;;3.20;90.20;;;;;;4957185;28;19935;-78
2022/01/19 10:44:44;;;;;;;;;;;3.10;91.20;;;;;;4939564;29;19911;-78
2022/01/19 10:47:10;;;;;;;;;;;3.10;93.20;;;;;;4939528;29;19910;-79
2022/01/19 10:49:48;;;;;;;;;;;3.10;93.00;;;;;;4938693;29;20630;-78
2022/01/19 10:52:34;;;;;;;;;;;3.20;93.00;;;;;;4938990;29;19910;-78
2022/01/19 10:55:01;;;;;;;;;;;3.30;92.50;;;;;;4944493;29;19917;-77
2022/01/19 10:57:28;;;;;;;;;;;3.30;92.90;;;;;;4937510;29;20383;-76
2022/01/19 11:00:08;;;;;;;;;;;3.20;92.90;;;;;;4938273;29;20013;-78
2022/01/19 11:02:37;;;;;;;;;;;3.30;93.70;;;;;;4937502;29;20041;-78
2022/01/19 11:05:03;;;;;;;;;;;3.30;94.30;;;;;;4937849;29;19933;-79
2022/01/19 11:07:29;;;;;;;;;;;3.30;92.30;;;;;;4939246;29;20367;-78
2022/01/19 11:10:01;;;;;;;;;;;3.20;92.60;;;;;;4938308;29;19940;-78
2022/01/19 11:12:30;;;;;;;;;;;3.20;94.10;;;;;;4937867;29;20013;-78
2022/01/19 11:14:56;;;;;;;;;;;3.20;94.20;;;;;;4957147;28;19910;-79
2022/01/19 11:17:22;;;;;;;;;;;3.20;95.00;;;;;;4939420;29;19910;-78
2022/01/19 11:19:49;;;;;;;;;;;3.20;94.80;;;;;;4957323;29;19906;-79
2022/01/19 11:22:20;;;;;;;;;;;3.30;93.80;;;;;;4940536;29;19907;-78
2022/01/19 11:25:05;;;;;;;;;;;3.30;94.70;;;;;;4938449;29;19961;-79
2022/01/19 11:27:38;;;;;;;;;;;3.30;95.00;;;;;;4955072;28;19914;-79
2022/01/19 11:30:15;;;;;;;;;;;3.40;93.60;;;;;;4940509;28;19933;-79
2022/01/19 11:32:41;;;;;;;;;;;3.40;93.10;;;;;;4941031;29;19910;-78
2022/01/19 11:35:07;;;;;;;;;;;3.30;93.30;;;;;;4940000;29;19915;-79
2022/01/19 11:37:34;;;;;;;;;;;3.20;95.10;;;;;;4957723;28;19906;-78
2022/01/19 11:40:02;;;;;;;;;;;3.20;95.50;;;;;;4956694;29;19906;-78
2022/01/19 11:42:28;;;;;;;;;;;3.20;95.50;;;;;;4939581;29;19907;-79
2022/01/19 11:44:53;;;;;;;;;;;3.20;96.50;;;;;;4942043;29;19913;-79
2022/01/19 11:47:24;;;;;;;;;;;3.20;96.80;;;;;;4943384;29;19945;-80
2022/01/19 11:49:49;;;;;;;;;;;3.40;96.40;;;;;;4943672;29;19906;-79
2022/01/19 11:52:16;;;;;;;;;;;3.30;96.70;;;;;;4942319;29;20338;-79
2022/01/19 11:54:41;;;;;;;;;;;3.40;96.60;;;;;;4959709;28;19926;-79
2022/01/19 11:57:09;;;;;;;;;;;3.40;96.40;;;;;;4962739;29;20254;-79
2022/01/19 11:59:43;;;;;;;;;;;3.50;96.40;;;;;;4949748;29;19970;-79
2022/01/19 12:02:24;;;;;;;;;;;3.50;96.20;;;;;;4942057;29;19911;-78
2022/01/19 12:04:59;;;;;;;;;;;3.50;96.80;;;;;;4959396;28;20607;-79
2022/01/19 12:07:34;;;;;;;;;;;3.50;97.00;;;;;;4942449;29;19906;-78
2022/01/19 12:10:00;;;;;;;;;;;3.50;96.90;;;;;;4960284;29;19914;-79
2022/01/19 12:12:30;;;;;;;;;;;3.60;97.00;;;;;;4942040;29;19910;-79
2022/01/19 12:14:57;;;;;;;;;;;3.50;96.30;;;;;;4941141;29;19911;-79
2022/01/19 12:17:26;;;;;;;;;;;3.50;96.10;;;;;;4940434;29;19913;-78
2022/01/19 12:19:52;;;;;;;;;;;3.50;95.60;;;;;;4940661;29;19917;-78
2022/01/19 12:22:23;;;;;;;;;;;3.50;95.90;;;;;;4957564;28;19911;-79
2022/01/19 12:24:59;;;;;;;;;;;3.40;96.20;;;;;;4957419;28;19910;-78
2022/01/19 12:27:26;;;;;;;;;;;3.50;96.30;;;;;;4940361;29;20527;-78
2022/01/19 12:29:58;;;;;;;;;;;3.50;96.50;;;;;;4939191;29;19962;-78
2022/01/19 12:32:26;;;;;;;;;;;3.50;96.40;;;;;;4940933;29;19938;-79
2022/01/19 12:34:52;;;;;;;;;;;3.50;96.30;;;;;;4940747;29;19910;-79
2022/01/19 12:37:26;;;;;;;;;;;3.50;95.50;;;;;;4940380;29;19911;-79
2022/01/19 12:39:52;;;;;;;;;;;3.60;95.80;;;;;;4940614;29;20558;-78
2022/01/19 12:42:30;;;;;;;;;;;3.60;95.10;;;;;;4941494;29;19910;-78
2022/01/19 12:44:57;;;;;;;;;;;3.50;95.20;;;;;;4957836;28;19942;-80
2022/01/19 12:47:26;;;;;;;;;;;3.50;94.90;;;;;;4941930;28;19910;-79
2022/01/19 12:50:07;;;;;;;;;;;3.40;95.20;;;;;;4942068;29;19906;-79
2022/01/19 12:52:33;;;;;;;;;;;3.40;96.10;;;;;;4942651;29;19958;-79
2022/01/19 12:55:09;;;;;;;;;;;3.50;96.70;;;;;;4943079;29;19906;-80
2022/01/19 12:57:34;;;;;;;;;;;3.40;95.90;;;;;;4959753;29;19906;-79
2022/01/19 13:00:00;;;;;;;;;;;3.50;95.70;;;;;;4941688;29;19906;-79
2022/01/19 13:02:29;;;;;;;;;;;3.50;95.20;;;;;;4960244;28;20386;-79
2022/01/19 13:05:02;;;;;;;;;;;3.50;95.30;;;;;;4939874;29;19945;-78
2022/01/19 13:07:30;;;;;;;;;;;3.50;95.10;;;;;;4944800;29;19997;-80
2022/01/19 13:10:03;;;;;;;;;;;3.60;95.00;;;;;;4949709;29;19918;-79
2022/01/19 13:12:33;;;;;;;;;;;3.60;95.00;;;;;;4969772;29;19910;-78
2022/01/19 13:14:58;;;;;;;;;;;3.60;94.20;;;;;;4941413;29;19955;-79
2022/01/19 13:17:24;;;;;;;;;;;3.60;94.20;;;;;;4939364;29;19913;-81
2022/01/19 13:19:49;;;;;;;;;;;3.50;94.20;;;;;;4939231;29;19910;-79
2022/01/19 13:22:15;;;;;;;;;;;3.60;93.70;;;;;;4939483;29;19910;-79
2022/01/19 13:24:42;;;;;;;;;;;3.60;93.20;;;;;;4939802;29;19910;-80
2022/01/19 13:27:10;;;;;;;;;;;3.60;92.60;;;;;;4940407;29;19906;-79
2022/01/19 13:29:39;;;;;;;;;;;3.60;92.80;;;;;;4958164;29;19914;-79
2022/01/19 13:32:15;;;;;;;;;;;3.60;93.10;;;;;;4955273;29;19910;-79
2022/01/19 13:34:53;;;;;;;;;;;3.50;93.10;;;;;;4953552;29;19906;-78
2022/01/19 13:37:19;;;;;;;;;;;3.50;92.80;;;;;;4935742;28;19914;-80
2022/01/19 13:39:53;;;;;;;;;;;3.50;92.50;;;;;;4936118;29;19926;-78
2022/01/19 13:42:30;;;;;;;;;;;3.50;92.40;;;;;;4935078;29;20024;-78
2022/01/19 13:44:57;;;;;;;;;;;3.50;92.20;;;;;;4952893;29;20359;-78
2022/01/19 13:47:29;;;;;;;;;;;3.40;92.70;;;;;;4935340;29;19933;-80
2022/01/19 13:50:01;;;;;;;;;;;3.50;92.80;;;;;;4936128;29;20343;-77
2022/01/19 13:52:26;;;;;;;;;;;3.50;92.90;;;;;;4952564;28;19906;-78
2022/01/19 13:54:52;;;;;;;;;;;3.50;92.90;;;;;;4934788;29;19910;-79
2022/01/19 13:57:28;;;;;;;;;;;3.50;92.40;;;;;;4935853;29;20398;-78
2022/01/19 13:59:54;;;;;;;;;;;3.50;92.40;;;;;;4936095;29;19910;-78
2022/01/19 14:02:20;;;;;;;;;;;3.50;92.30;;;;;;4936783;29;20294;-79
2022/01/19 14:04:50;;;;;;;;;;;3.40;92.40;;;;;;4937244;29;19957;-79
2022/01/19 14:07:17;;;;;;;;;;;3.40;92.10;;;;;;4957291;29;19991;-78
2022/01/19 14:09:43;;;;;;;;;;;3.40;92.30;;;;;;4940196;29;19913;-79
2022/01/19 14:12:16;;;;;;;;;;;3.40;92.80;;;;;;4957153;29;19907;-79
2022/01/19 14:14:48;;;;;;;;;;;3.20;93.50;;;;;;4939612;29;19974;-79
2022/01/19 14:17:24;;;;;;;;;;;3.20;93.70;;;;;;4939397;29;19997;-79
2022/01/19 14:19:50;;;;;;;;;;;3.20;93.60;;;;;;4939123;29;20434;-79
2022/01/19 14:22:21;;;;;;;;;;;3.10;94.00;;;;;;4939212;29;19907;-80
2022/01/19 14:24:47;;;;;;;;;;;3.10;94.20;;;;;;4958228;29;20338;-79
2022/01/19 14:27:15;;;;;;;;;;;3.10;94.10;;;;;;4938950;29;19907;-79
2022/01/19 14:29:53;;;;;;;;;;;3.10;94.10;;;;;;4958160;28;19918;-79
2022/01/19 14:32:18;;;;;;;;;;;3.10;94.50;;;;;;4958151;28;19922;-79
2022/01/19 14:34:44;;;;;;;;;;;3.00;94.90;;;;;;4940202;28;19914;-77
2022/01/19 14:37:13;;;;;;;;;;;3.00;95.20;;;;;;4976434;28;19989;-79
2022/01/19 14:39:55;;;;;;;;;;;3.00;95.60;;;;;;4972008;28;19918;-77
2022/01/19 14:42:24;;;;;;;;;;;2.90;95.70;;;;;;4972411;28;19927;-77
2022/01/19 14:45:01;;;;;;;;;;;2.90;96.20;;;;;;4973170;28;19910;-78
2022/01/19 14:47:35;;;;;;;;;;;2.80;96.80;;;;;;4973399;28;20012;-79
2022/01/19 14:50:19;;;;;;;;;;;2.70;97.30;;;;;;4956153;28;19965;-79
2022/01/19 14:52:45;;;;;;;;;;;2.60;97.70;;;;;;4956283;28;19941;-79
2022/01/19 14:55:11;;;;;;;;;;;2.60;98.60;;;;;;4974949;28;19906;-78
2022/01/19 14:57:36;;;;;;;;;;;2.40;98.70;;;;;;4958239;28;20387;-78
2022/01/19 15:00:05;;;;;;;;;;;2.40;99.30;;;;;;4961123;28;19910;-78
2022/01/19 15:02:30;;;;;;;;;;;2.30;99.70;;;;;;4973585;28;19910;-78
2022/01/19 15:04:56;;;;;;;;;;;2.20;99.90;;;;;;4955951;28;19913;-77
2022/01/19 15:07:21;;;;;;;;;;;2.10;99.90;;;;;;4971552;28;19909;-79
2022/01/19 15:09:47;;;;;;;;;;;2.00;99.90;;;;;;4979277;28;19925;-82
2022/01/19 15:12:12;;;;;;;;;;;1.90;99.90;;;;;;4994681;28;19921;-80
2022/01/19 15:14:40;;;;;;;;;;;1.80;99.90;;;;;;4969321;28;19913;-80
2022/01/19 15:17:08;;;;;;;;;;;1.70;99.90;;;;;;4968084;28;19906;-79
2022/01/19 15:19:34;;;;;;;;;;;1.60;99.90;;;;;;4968907;28;19910;-81
2022/01/19 15:21:59;;;;;;;;;;;1.50;99.90;;;;;;4990161;28;19949;-79
2022/01/19 15:24:25;;;;;;;;;;;1.40;99.90;;;;;;4974404;28;19902;-80
2022/01/19 15:26:50;;;;;;;;;;;1.40;99.90;;;;;;4969934;28;19914;-79
2022/01/19 15:29:16;;;;;;;;;;;1.30;99.90;;;;;;4939642;28;19921;-78
2022/01/19 15:31:43;;;;;;;;;;;1.20;99.90;;;;;;4976489;28;19937;-79
2022/01/19 15:34:09;;;;;;;;;;;1.10;99.90;;;;;;4976370;28;20344;-78
2022/01/19 15:36:34;;;;;;;;;;;1.00;99.90;;;;;;4975483;28;19969;-77
2022/01/19 15:39:02;;;;;;;;;;;0.80;99.90;;;;;;4958260;28;20060;-78
2022/01/19 15:41:28;;;;;;;;;;;0.70;99.90;;;;;;4959811;28;20012;-79
2022/01/19 15:43:53;;;;;;;;;;;0.70;99.90;;;;;;4956872;28;19945;-78
2022/01/19 15:46:19;;;;;;;;;;;0.60;99.90;;;;;;4957012;28;19910;-78
2022/01/19 15:48:45;;;;;;;;;;;0.40;99.90;;;;;;4957947;28;20773;-79
2022/01/19 15:51:10;;;;;;;;;;;0.40;99.90;;;;;;4975062;28;20346;-77
2022/01/19 15:53:36;;;;;;;;;;;0.40;99.90;;;;;;4981551;28;19969;-80
2022/01/19 15:56:01;;;;;;;;;;;0.40;99.90;;;;;;4987127;28;20369;-79